sensor_id;sensor_type;location;lat;lon;timestamp;P1;durP1;ratioP1;P2;durP2;ratioP2
12267;SDS011;6196;48.398;11.736;2023-03-05T00:01:17;33.90;;;20.93;;
12267;SDS011;6196;48.398;11.736;2023-03-05T00:03:48;30.67;;;19.93;;
12267;SDS011;6196;48.398;11.736;2023-03-05T00:06:21;33.53;;;21.50;;
12267;SDS011;6196;48.398;11.736;2023-03-05T00:08:50;34.53;;;21.73;;
12267;SDS011;6196;48.398;11.736;2023-03-05T00:11:18;34.13;;;20.03;;
12267;SDS011;6196;48.398;11.736;2023-03-05T00:13:46;34.27;;;21.50;;
12267;SDS011;6196;48.398;11.736;2023-03-05T00:16:14;35.20;;;21.80;;
12267;SDS011;6196;48.398;11.736;2023-03-05T00:18:41;35.37;;;21.03;;
12267;SDS011;6196;48.398;11.736;2023-03-05T00:21:17;34.70;;;21.63;;
12267;SDS011;6196;48.398;11.736;2023-03-05T00:23:58;34.27;;;20.30;;
12267;SDS011;6196;48.398;11.736;2023-03-05T00:26:26;37.37;;;22.00;;
12267;SDS011;6196;48.398;11.736;2023-03-05T00:28:54;35.33;;;21.93;;
12267;SDS011;6196;48.398;11.736;2023-03-05T00:31:24;33.20;;;20.67;;
12267;SDS011;6196;48.398;11.736;2023-03-05T00:33:58;35.03;;;21.67;;
12267;SDS011;6196;48.398;11.736;2023-03-05T00:36:28;32.67;;;20.80;;
12267;SDS011;6196;48.398;11.736;2023-03-05T00:38:55;32.07;;;19.03;;
12267;SDS011;6196;48.398;11.736;2023-03-05T00:41:23;36.17;;;21.10;;
12267;SDS011;6196;48.398;11.736;2023-03-05T00:43:50;32.87;;;20.43;;
12267;SDS011;6196;48.398;11.736;2023-03-05T00:46:17;34.83;;;22.03;;
12267;SDS011;6196;48.398;11.736;2023-03-05T00:48:44;37.30;;;22.30;;
12267;SDS011;6196;48.398;11.736;2023-03-05T00:51:11;35.80;;;21.60;;
12267;SDS011;6196;48.398;11.736;2023-03-05T00:53:38;35.33;;;21.53;;
12267;SDS011;6196;48.398;11.736;2023-03-05T00:56:05;35.10;;;21.27;;
12267;SDS011;6196;48.398;11.736;2023-03-05T00:58:32;34.97;;;22.17;;
12267;SDS011;6196;48.398;11.736;2023-03-05T01:00:59;37.40;;;20.57;;
12267;SDS011;6196;48.398;11.736;2023-03-05T01:03:28;33.27;;;20.43;;
12267;SDS011;6196;48.398;11.736;2023-03-05T01:05:56;40.27;;;22.17;;
12267;SDS011;6196;48.398;11.736;2023-03-05T01:08:23;35.37;;;21.50;;
12267;SDS011;6196;48.398;11.736;2023-03-05T01:10:50;37.60;;;22.17;;
12267;SDS011;6196;48.398;11.736;2023-03-05T01:13:17;37.27;;;22.90;;
12267;SDS011;6196;48.398;11.736;2023-03-05T01:15:45;37.47;;;22.90;;
12267;SDS011;6196;48.398;11.736;2023-03-05T01:18:13;40.00;;;24.73;;
12267;SDS011;6196;48.398;11.736;2023-03-05T01:20:40;39.07;;;23.23;;
12267;SDS011;6196;48.398;11.736;2023-03-05T01:23:07;39.37;;;23.80;;
12267;SDS011;6196;48.398;11.736;2023-03-05T01:25:34;40.80;;;22.47;;
12267;SDS011;6196;48.398;11.736;2023-03-05T01:28:02;38.97;;;23.33;;
12267;SDS011;6196;48.398;11.736;2023-03-05T01:30:30;39.70;;;23.83;;
12267;SDS011;6196;48.398;11.736;2023-03-05T01:32:57;42.90;;;26.13;;
12267;SDS011;6196;48.398;11.736;2023-03-05T01:35:24;42.37;;;25.50;;
12267;SDS011;6196;48.398;11.736;2023-03-05T01:37:52;44.27;;;25.10;;
12267;SDS011;6196;48.398;11.736;2023-03-05T01:40:22;44.60;;;25.00;;
12267;SDS011;6196;48.398;11.736;2023-03-05T01:45:38;41.53;;;24.13;;
12267;SDS011;6196;48.398;11.736;2023-03-05T01:48:44;42.20;;;25.63;;
12267;SDS011;6196;48.398;11.736;2023-03-05T01:51:16;41.83;;;24.33;;
12267;SDS011;6196;48.398;11.736;2023-03-05T01:53:45;41.97;;;24.53;;
12267;SDS011;6196;48.398;11.736;2023-03-05T01:56:13;43.93;;;26.40;;
12267;SDS011;6196;48.398;11.736;2023-03-05T01:58:40;42.83;;;25.17;;
12267;SDS011;6196;48.398;11.736;2023-03-05T02:01:08;47.00;;;27.67;;
12267;SDS011;6196;48.398;11.736;2023-03-05T02:03:35;41.40;;;24.80;;
12267;SDS011;6196;48.398;11.736;2023-03-05T02:06:03;45.67;;;25.73;;
12267;SDS011;6196;48.398;11.736;2023-03-05T02:08:30;41.43;;;25.30;;
12267;SDS011;6196;48.398;11.736;2023-03-05T02:10:57;42.53;;;25.30;;
12267;SDS011;6196;48.398;11.736;2023-03-05T02:13:29;48.97;;;26.50;;
12267;SDS011;6196;48.398;11.736;2023-03-05T02:16:01;45.10;;;25.53;;
12267;SDS011;6196;48.398;11.736;2023-03-05T02:18:28;43.97;;;24.80;;
12267;SDS011;6196;48.398;11.736;2023-03-05T02:23:26;46.07;;;25.90;;
12267;SDS011;6196;48.398;11.736;2023-03-05T02:25:58;38.90;;;24.27;;
12267;SDS011;6196;48.398;11.736;2023-03-05T02:28:26;46.17;;;26.87;;
12267;SDS011;6196;48.398;11.736;2023-03-05T02:31:09;41.10;;;25.23;;
12267;SDS011;6196;48.398;11.736;2023-03-05T02:33:43;44.83;;;24.73;;
12267;SDS011;6196;48.398;11.736;2023-03-05T02:36:10;44.13;;;25.10;;
12267;SDS011;6196;48.398;11.736;2023-03-05T02:38:39;43.67;;;23.67;;
12267;SDS011;6196;48.398;11.736;2023-03-05T02:41:07;44.90;;;25.83;;
12267;SDS011;6196;48.398;11.736;2023-03-05T02:43:35;45.20;;;24.20;;
12267;SDS011;6196;48.398;11.736;2023-03-05T02:46:02;47.30;;;25.57;;
12267;SDS011;6196;48.398;11.736;2023-03-05T02:48:30;45.57;;;24.80;;
12267;SDS011;6196;48.398;11.736;2023-03-05T02:50:57;45.40;;;25.17;;
12267;SDS011;6196;48.398;11.736;2023-03-05T02:53:24;45.13;;;25.77;;
12267;SDS011;6196;48.398;11.736;2023-03-05T02:55:51;41.43;;;24.77;;
12267;SDS011;6196;48.398;11.736;2023-03-05T02:58:18;48.20;;;26.07;;
12267;SDS011;6196;48.398;11.736;2023-03-05T03:00:45;44.03;;;25.77;;
12267;SDS011;6196;48.398;11.736;2023-03-05T03:03:12;46.73;;;25.37;;
12267;SDS011;6196;48.398;11.736;2023-03-05T03:05:39;44.23;;;24.23;;
12267;SDS011;6196;48.398;11.736;2023-03-05T03:08:06;43.87;;;24.90;;
12267;SDS011;6196;48.398;11.736;2023-03-05T03:10:33;40.27;;;24.20;;
12267;SDS011;6196;48.398;11.736;2023-03-05T03:13:00;44.37;;;24.87;;
12267;SDS011;6196;48.398;11.736;2023-03-05T03:15:27;42.00;;;24.10;;
12267;SDS011;6196;48.398;11.736;2023-03-05T03:17:54;41.53;;;24.63;;
12267;SDS011;6196;48.398;11.736;2023-03-05T03:20:21;48.73;;;27.37;;
12267;SDS011;6196;48.398;11.736;2023-03-05T03:22:48;41.47;;;24.63;;
12267;SDS011;6196;48.398;11.736;2023-03-05T03:25:17;44.57;;;25.20;;
12267;SDS011;6196;48.398;11.736;2023-03-05T03:27:46;43.70;;;25.70;;
12267;SDS011;6196;48.398;11.736;2023-03-05T03:30:13;42.80;;;23.97;;
12267;SDS011;6196;48.398;11.736;2023-03-05T03:32:41;45.47;;;24.93;;
12267;SDS011;6196;48.398;11.736;2023-03-05T03:35:08;44.40;;;25.03;;
12267;SDS011;6196;48.398;11.736;2023-03-05T03:37:36;41.87;;;23.23;;
12267;SDS011;6196;48.398;11.736;2023-03-05T03:40:04;44.97;;;24.67;;
12267;SDS011;6196;48.398;11.736;2023-03-05T03:42:32;43.53;;;24.63;;
12267;SDS011;6196;48.398;11.736;2023-03-05T03:44:59;46.13;;;25.93;;
12267;SDS011;6196;48.398;11.736;2023-03-05T03:47:28;43.17;;;23.93;;
12267;SDS011;6196;48.398;11.736;2023-03-05T03:49:55;40.63;;;24.13;;
12267;SDS011;6196;48.398;11.736;2023-03-05T03:52:23;40.30;;;24.70;;
12267;SDS011;6196;48.398;11.736;2023-03-05T03:54:51;41.20;;;24.37;;
12267;SDS011;6196;48.398;11.736;2023-03-05T03:57:20;40.27;;;24.43;;
12267;SDS011;6196;48.398;11.736;2023-03-05T03:59:47;43.63;;;24.90;;
12267;SDS011;6196;48.398;11.736;2023-03-05T04:02:15;44.50;;;23.77;;
12267;SDS011;6196;48.398;11.736;2023-03-05T04:04:42;44.77;;;24.73;;
12267;SDS011;6196;48.398;11.736;2023-03-05T04:07:09;41.73;;;24.13;;
12267;SDS011;6196;48.398;11.736;2023-03-05T04:09:36;39.50;;;22.90;;
12267;SDS011;6196;48.398;11.736;2023-03-05T04:12:03;41.03;;;22.47;;
12267;SDS011;6196;48.398;11.736;2023-03-05T04:14:30;40.53;;;23.67;;
12267;SDS011;6196;48.398;11.736;2023-03-05T04:16:57;39.93;;;23.40;;
12267;SDS011;6196;48.398;11.736;2023-03-05T04:19:24;43.33;;;23.93;;
12267;SDS011;6196;48.398;11.736;2023-03-05T04:21:51;44.20;;;23.90;;
12267;SDS011;6196;48.398;11.736;2023-03-05T04:24:18;41.53;;;23.77;;
12267;SDS011;6196;48.398;11.736;2023-03-05T04:26:45;42.20;;;23.13;;
12267;SDS011;6196;48.398;11.736;2023-03-05T04:29:11;38.60;;;23.23;;
12267;SDS011;6196;48.398;11.736;2023-03-05T04:31:38;38.27;;;22.90;;
12267;SDS011;6196;48.398;11.736;2023-03-05T04:34:05;42.70;;;23.70;;
12267;SDS011;6196;48.398;11.736;2023-03-05T04:36:32;35.70;;;21.90;;
12267;SDS011;6196;48.398;11.736;2023-03-05T04:38:59;38.87;;;22.87;;
12267;SDS011;6196;48.398;11.736;2023-03-05T04:41:26;39.43;;;22.13;;
12267;SDS011;6196;48.398;11.736;2023-03-05T04:43:53;41.63;;;23.53;;
12267;SDS011;6196;48.398;11.736;2023-03-05T04:46:20;38.93;;;22.23;;
12267;SDS011;6196;48.398;11.736;2023-03-05T04:48:47;39.40;;;23.27;;
12267;SDS011;6196;48.398;11.736;2023-03-05T04:51:14;36.53;;;21.57;;
12267;SDS011;6196;48.398;11.736;2023-03-05T04:53:40;35.47;;;22.03;;
12267;SDS011;6196;48.398;11.736;2023-03-05T04:56:07;38.00;;;22.53;;
12267;SDS011;6196;48.398;11.736;2023-03-05T04:58:34;42.30;;;23.47;;
12267;SDS011;6196;48.398;11.736;2023-03-05T05:01:02;37.03;;;21.83;;
12267;SDS011;6196;48.398;11.736;2023-03-05T05:03:31;37.23;;;21.03;;
12267;SDS011;6196;48.398;11.736;2023-03-05T05:05:59;35.83;;;20.50;;
12267;SDS011;6196;48.398;11.736;2023-03-05T05:08:27;40.63;;;22.27;;
12267;SDS011;6196;48.398;11.736;2023-03-05T05:10:58;36.87;;;21.03;;
12267;SDS011;6196;48.398;11.736;2023-03-05T05:13:28;37.90;;;21.53;;
12267;SDS011;6196;48.398;11.736;2023-03-05T05:15:56;35.30;;;20.50;;
12267;SDS011;6196;48.398;11.736;2023-03-05T05:18:23;35.47;;;21.10;;
12267;SDS011;6196;48.398;11.736;2023-03-05T05:20:51;36.10;;;21.00;;
12267;SDS011;6196;48.398;11.736;2023-03-05T05:23:18;34.30;;;20.47;;
12267;SDS011;6196;48.398;11.736;2023-03-05T05:25:45;36.37;;;20.40;;
12267;SDS011;6196;48.398;11.736;2023-03-05T05:28:24;35.97;;;20.80;;
12267;SDS011;6196;48.398;11.736;2023-03-05T05:30:51;35.60;;;20.43;;
12267;SDS011;6196;48.398;11.736;2023-03-05T05:33:18;33.70;;;21.23;;
12267;SDS011;6196;48.398;11.736;2023-03-05T05:35:46;34.50;;;20.37;;
12267;SDS011;6196;48.398;11.736;2023-03-05T05:38:13;33.23;;;19.03;;
12267;SDS011;6196;48.398;11.736;2023-03-05T05:40:40;36.27;;;20.67;;
12267;SDS011;6196;48.398;11.736;2023-03-05T05:43:07;34.23;;;20.30;;
12267;SDS011;6196;48.398;11.736;2023-03-05T05:45:36;35.80;;;20.03;;
12267;SDS011;6196;48.398;11.736;2023-03-05T05:48:03;33.43;;;19.23;;
12267;SDS011;6196;48.398;11.736;2023-03-05T05:50:30;30.90;;;19.73;;
12267;SDS011;6196;48.398;11.736;2023-03-05T05:52:57;35.57;;;20.27;;
12267;SDS011;6196;48.398;11.736;2023-03-05T05:55:24;35.50;;;20.23;;
12267;SDS011;6196;48.398;11.736;2023-03-05T05:57:51;33.63;;;19.80;;
12267;SDS011;6196;48.398;11.736;2023-03-05T06:00:18;31.73;;;19.50;;
12267;SDS011;6196;48.398;11.736;2023-03-05T06:02:45;35.93;;;20.43;;
12267;SDS011;6196;48.398;11.736;2023-03-05T06:05:12;33.83;;;20.33;;
12267;SDS011;6196;48.398;11.736;2023-03-05T06:07:40;35.13;;;19.47;;
12267;SDS011;6196;48.398;11.736;2023-03-05T06:10:07;33.13;;;20.93;;
12267;SDS011;6196;48.398;11.736;2023-03-05T06:12:35;35.50;;;20.13;;
12267;SDS011;6196;48.398;11.736;2023-03-05T06:15:02;38.10;;;19.47;;
12267;SDS011;6196;48.398;11.736;2023-03-05T06:17:29;34.80;;;19.97;;
12267;SDS011;6196;48.398;11.736;2023-03-05T06:19:56;34.87;;;20.17;;
12267;SDS011;6196;48.398;11.736;2023-03-05T06:22:24;31.90;;;19.87;;
12267;SDS011;6196;48.398;11.736;2023-03-05T06:24:51;32.70;;;20.57;;
12267;SDS011;6196;48.398;11.736;2023-03-05T06:27:18;37.70;;;21.20;;
12267;SDS011;6196;48.398;11.736;2023-03-05T06:29:45;34.33;;;20.07;;
12267;SDS011;6196;48.398;11.736;2023-03-05T06:32:12;35.83;;;20.67;;
12267;SDS011;6196;48.398;11.736;2023-03-05T06:34:39;34.33;;;20.97;;
12267;SDS011;6196;48.398;11.736;2023-03-05T06:37:06;38.63;;;20.90;;
12267;SDS011;6196;48.398;11.736;2023-03-05T06:39:32;33.57;;;20.30;;
12267;SDS011;6196;48.398;11.736;2023-03-05T06:41:59;38.23;;;21.30;;
12267;SDS011;6196;48.398;11.736;2023-03-05T06:44:26;35.77;;;19.97;;
12267;SDS011;6196;48.398;11.736;2023-03-05T06:46:53;37.73;;;22.73;;
12267;SDS011;6196;48.398;11.736;2023-03-05T06:49:20;37.47;;;20.90;;
12267;SDS011;6196;48.398;11.736;2023-03-05T06:51:47;37.07;;;21.30;;
12267;SDS011;6196;48.398;11.736;2023-03-05T06:54:14;35.13;;;21.07;;
12267;SDS011;6196;48.398;11.736;2023-03-05T06:56:43;36.97;;;20.83;;
12267;SDS011;6196;48.398;11.736;2023-03-05T06:59:12;32.10;;;20.13;;
12267;SDS011;6196;48.398;11.736;2023-03-05T07:01:41;33.60;;;20.93;;
12267;SDS011;6196;48.398;11.736;2023-03-05T07:04:10;37.73;;;21.90;;
12267;SDS011;6196;48.398;11.736;2023-03-05T07:06:38;36.67;;;22.20;;
12267;SDS011;6196;48.398;11.736;2023-03-05T07:09:07;36.90;;;21.20;;
12267;SDS011;6196;48.398;11.736;2023-03-05T07:11:39;41.07;;;22.50;;
12267;SDS011;6196;48.398;11.736;2023-03-05T07:14:06;36.90;;;21.47;;
12267;SDS011;6196;48.398;11.736;2023-03-05T07:16:33;36.53;;;20.87;;
12267;SDS011;6196;48.398;11.736;2023-03-05T07:19:02;35.93;;;21.53;;
12267;SDS011;6196;48.398;11.736;2023-03-05T07:21:31;34.80;;;22.13;;
12267;SDS011;6196;48.398;11.736;2023-03-05T07:24:04;35.73;;;21.50;;
12267;SDS011;6196;48.398;11.736;2023-03-05T07:26:31;37.23;;;20.77;;
12267;SDS011;6196;48.398;11.736;2023-03-05T07:28:59;43.33;;;21.53;;
12267;SDS011;6196;48.398;11.736;2023-03-05T07:31:27;36.97;;;21.67;;
12267;SDS011;6196;48.398;11.736;2023-03-05T07:33:57;36.93;;;22.40;;
12267;SDS011;6196;48.398;11.736;2023-03-05T07:36:26;40.60;;;22.73;;
12267;SDS011;6196;48.398;11.736;2023-03-05T07:38:53;38.70;;;22.37;;
12267;SDS011;6196;48.398;11.736;2023-03-05T07:41:20;36.70;;;21.63;;
12267;SDS011;6196;48.398;11.736;2023-03-05T07:43:49;36.23;;;21.70;;
12267;SDS011;6196;48.398;11.736;2023-03-05T07:46:19;38.63;;;22.40;;
12267;SDS011;6196;48.398;11.736;2023-03-05T07:48:53;39.13;;;22.90;;
12267;SDS011;6196;48.398;11.736;2023-03-05T07:51:21;39.03;;;23.23;;
12267;SDS011;6196;48.398;11.736;2023-03-05T07:53:49;36.77;;;21.67;;
12267;SDS011;6196;48.398;11.736;2023-03-05T07:56:22;39.03;;;22.37;;
12267;SDS011;6196;48.398;11.736;2023-03-05T07:58:51;33.77;;;22.10;;
12267;SDS011;6196;48.398;11.736;2023-03-05T08:01:18;39.97;;;22.37;;
12267;SDS011;6196;48.398;11.736;2023-03-05T08:03:45;37.93;;;21.97;;
12267;SDS011;6196;48.398;11.736;2023-03-05T08:06:12;37.40;;;21.97;;
12267;SDS011;6196;48.398;11.736;2023-03-05T08:08:39;40.87;;;22.60;;
12267;SDS011;6196;48.398;11.736;2023-03-05T08:11:10;38.73;;;22.73;;
12267;SDS011;6196;48.398;11.736;2023-03-05T08:13:39;37.00;;;23.03;;
12267;SDS011;6196;48.398;11.736;2023-03-05T08:16:08;38.43;;;21.80;;
12267;SDS011;6196;48.398;11.736;2023-03-05T08:18:41;41.10;;;21.87;;
12267;SDS011;6196;48.398;11.736;2023-03-05T08:21:19;39.13;;;22.97;;
12267;SDS011;6196;48.398;11.736;2023-03-05T08:23:57;39.57;;;22.57;;
12267;SDS011;6196;48.398;11.736;2023-03-05T08:26:26;39.93;;;22.13;;
12267;SDS011;6196;48.398;11.736;2023-03-05T08:28:56;36.93;;;21.47;;
12267;SDS011;6196;48.398;11.736;2023-03-05T08:31:24;34.93;;;21.80;;
12267;SDS011;6196;48.398;11.736;2023-03-05T08:33:53;37.33;;;23.10;;
12267;SDS011;6196;48.398;11.736;2023-03-05T08:36:23;44.83;;;29.83;;
12267;SDS011;6196;48.398;11.736;2023-03-05T08:38:50;58.10;;;39.40;;
12267;SDS011;6196;48.398;11.736;2023-03-05T08:41:17;53.03;;;33.43;;
12267;SDS011;6196;48.398;11.736;2023-03-05T08:43:45;62.80;;;37.73;;
12267;SDS011;6196;48.398;11.736;2023-03-05T08:46:12;52.17;;;34.63;;
12267;SDS011;6196;48.398;11.736;2023-03-05T08:48:40;49.03;;;31.57;;
12267;SDS011;6196;48.398;11.736;2023-03-05T08:51:09;51.40;;;31.00;;
12267;SDS011;6196;48.398;11.736;2023-03-05T08:53:43;48.10;;;26.70;;
12267;SDS011;6196;48.398;11.736;2023-03-05T08:56:11;39.93;;;24.63;;
12267;SDS011;6196;48.398;11.736;2023-03-05T08:58:38;42.13;;;24.57;;
12267;SDS011;6196;48.398;11.736;2023-03-05T09:01:05;40.33;;;22.97;;
12267;SDS011;6196;48.398;11.736;2023-03-05T09:03:32;36.30;;;22.37;;
12267;SDS011;6196;48.398;11.736;2023-03-05T09:06:00;40.70;;;23.93;;
12267;SDS011;6196;48.398;11.736;2023-03-05T09:08:30;41.60;;;23.27;;
12267;SDS011;6196;48.398;11.736;2023-03-05T09:10:57;40.70;;;24.13;;
12267;SDS011;6196;48.398;11.736;2023-03-05T09:13:27;37.93;;;22.83;;
12267;SDS011;6196;48.398;11.736;2023-03-05T09:15:54;36.73;;;22.93;;
12267;SDS011;6196;48.398;11.736;2023-03-05T09:18:27;40.07;;;22.67;;
12267;SDS011;6196;48.398;11.736;2023-03-05T09:20:54;39.27;;;22.83;;
12267;SDS011;6196;48.398;11.736;2023-03-05T09:23:22;37.63;;;22.57;;
12267;SDS011;6196;48.398;11.736;2023-03-05T09:25:49;41.73;;;21.93;;
12267;SDS011;6196;48.398;11.736;2023-03-05T09:28:16;35.67;;;21.27;;
12267;SDS011;6196;48.398;11.736;2023-03-05T09:30:43;37.33;;;22.40;;
12267;SDS011;6196;48.398;11.736;2023-03-05T09:33:09;36.30;;;21.63;;
12267;SDS011;6196;48.398;11.736;2023-03-05T09:35:37;35.53;;;22.40;;
12267;SDS011;6196;48.398;11.736;2023-03-05T09:38:04;36.67;;;21.87;;
12267;SDS011;6196;48.398;11.736;2023-03-05T09:46:54;37.53;;;21.97;;
12267;SDS011;6196;48.398;11.736;2023-03-05T09:50:02;36.87;;;21.33;;
12267;SDS011;6196;48.398;11.736;2023-03-05T09:52:49;40.27;;;22.70;;
12267;SDS011;6196;48.398;11.736;2023-03-05T09:57:58;34.87;;;20.83;;
12267;SDS011;6196;48.398;11.736;2023-03-05T10:00:52;35.70;;;21.40;;
12267;SDS011;6196;48.398;11.736;2023-03-05T10:03:29;35.07;;;21.13;;
12267;SDS011;6196;48.398;11.736;2023-03-05T10:06:23;34.83;;;19.97;;
12267;SDS011;6196;48.398;11.736;2023-03-05T10:12:17;33.70;;;20.03;;
12267;SDS011;6196;48.398;11.736;2023-03-05T10:15:12;34.70;;;21.07;;
12267;SDS011;6196;48.398;11.736;2023-03-05T10:17:58;32.80;;;20.53;;
12267;SDS011;6196;48.398;11.736;2023-03-05T10:20:48;33.53;;;20.80;;
12267;SDS011;6196;48.398;11.736;2023-03-05T10:23:48;35.17;;;20.47;;
12267;SDS011;6196;48.398;11.736;2023-03-05T10:26:54;34.50;;;20.17;;
12267;SDS011;6196;48.398;11.736;2023-03-05T10:30:02;35.87;;;22.20;;
12267;SDS011;6196;48.398;11.736;2023-03-05T10:38:34;37.27;;;22.07;;
12267;SDS011;6196;48.398;11.736;2023-03-05T10:43:46;39.93;;;28.27;;
12267;SDS011;6196;48.398;11.736;2023-03-05T10:46:41;34.33;;;19.97;;
12267;SDS011;6196;48.398;11.736;2023-03-05T10:52:03;31.13;;;20.63;;
12267;SDS011;6196;48.398;11.736;2023-03-05T10:54:36;30.37;;;19.53;;
12267;SDS011;6196;48.398;11.736;2023-03-05T10:57:17;32.80;;;18.57;;
12267;SDS011;6196;48.398;11.736;2023-03-05T11:02:58;29.27;;;18.50;;
12267;SDS011;6196;48.398;11.736;2023-03-05T11:05:36;31.20;;;19.30;;
12267;SDS011;6196;48.398;11.736;2023-03-05T11:08:32;29.97;;;18.73;;
12267;SDS011;6196;48.398;11.736;2023-03-05T11:11:02;33.13;;;19.47;;
12267;SDS011;6196;48.398;11.736;2023-03-05T11:13:57;34.13;;;19.57;;
12267;SDS011;6196;48.398;11.736;2023-03-05T11:16:34;30.07;;;19.27;;
12267;SDS011;6196;48.398;11.736;2023-03-05T11:19:30;28.90;;;18.40;;
12267;SDS011;6196;48.398;11.736;2023-03-05T11:24:44;26.37;;;17.10;;
12267;SDS011;6196;48.398;11.736;2023-03-05T11:30:24;30.73;;;18.27;;
12267;SDS011;6196;48.398;11.736;2023-03-05T11:35:52;30.23;;;17.93;;
12267;SDS011;6196;48.398;11.736;2023-03-05T11:38:46;31.87;;;22.03;;
12267;SDS011;6196;48.398;11.736;2023-03-05T11:41:18;29.33;;;18.83;;
12267;SDS011;6196;48.398;11.736;2023-03-05T11:43:52;33.47;;;19.37;;
12267;SDS011;6196;48.398;11.736;2023-03-05T11:46:21;28.60;;;18.93;;
12267;SDS011;6196;48.398;11.736;2023-03-05T11:48:49;30.70;;;18.93;;
12267;SDS011;6196;48.398;11.736;2023-03-05T11:51:27;27.37;;;18.20;;
12267;SDS011;6196;48.398;11.736;2023-03-05T11:54:06;28.10;;;17.17;;
12267;SDS011;6196;48.398;11.736;2023-03-05T11:56:41;26.83;;;17.43;;
12267;SDS011;6196;48.398;11.736;2023-03-05T12:02:08;28.07;;;17.37;;
12267;SDS011;6196;48.398;11.736;2023-03-05T12:04:46;27.30;;;16.53;;
12267;SDS011;6196;48.398;11.736;2023-03-05T12:07:15;28.47;;;17.40;;
12267;SDS011;6196;48.398;11.736;2023-03-05T12:09:55;28.03;;;16.87;;
12267;SDS011;6196;48.398;11.736;2023-03-05T12:12:30;24.17;;;15.30;;
12267;SDS011;6196;48.398;11.736;2023-03-05T12:17:58;25.53;;;16.30;;
12267;SDS011;6196;48.398;11.736;2023-03-05T12:23:47;25.93;;;16.40;;
12267;SDS011;6196;48.398;11.736;2023-03-05T12:29:42;23.70;;;15.73;;
12267;SDS011;6196;48.398;11.736;2023-03-05T12:35:04;25.17;;;16.30;;
12267;SDS011;6196;48.398;11.736;2023-03-05T12:40:24;24.10;;;15.53;;
12267;SDS011;6196;48.398;11.736;2023-03-05T12:42:54;22.67;;;14.30;;
12267;SDS011;6196;48.398;11.736;2023-03-05T12:45:31;25.03;;;15.07;;
12267;SDS011;6196;48.398;11.736;2023-03-05T12:53:11;22.73;;;14.80;;
12267;SDS011;6196;48.398;11.736;2023-03-05T13:01:15;25.73;;;14.50;;
12267;SDS011;6196;48.398;11.736;2023-03-05T13:04:04;23.63;;;14.10;;
12267;SDS011;6196;48.398;11.736;2023-03-05T13:06:40;24.13;;;14.37;;
12267;SDS011;6196;48.398;11.736;2023-03-05T13:09:23;22.07;;;13.83;;
12267;SDS011;6196;48.398;11.736;2023-03-05T13:11:53;24.77;;;14.00;;
12267;SDS011;6196;48.398;11.736;2023-03-05T13:14:29;20.67;;;12.80;;
12267;SDS011;6196;48.398;11.736;2023-03-05T13:20:02;18.83;;;12.40;;
12267;SDS011;6196;48.398;11.736;2023-03-05T13:37:15;14.80;;;9.77;;
12267;SDS011;6196;48.398;11.736;2023-03-05T13:39:53;14.20;;;9.23;;
12267;SDS011;6196;48.398;11.736;2023-03-05T13:42:41;12.73;;;8.23;;
12267;SDS011;6196;48.398;11.736;2023-03-05T13:45:29;14.17;;;8.93;;
12267;SDS011;6196;48.398;11.736;2023-03-05T13:47:58;16.37;;;9.40;;
12267;SDS011;6196;48.398;11.736;2023-03-05T13:53:12;14.20;;;8.83;;
12267;SDS011;6196;48.398;11.736;2023-03-05T13:55:40;14.53;;;9.67;;
12267;SDS011;6196;48.398;11.736;2023-03-05T14:04:05;15.03;;;8.97;;
12267;SDS011;6196;48.398;11.736;2023-03-05T14:06:52;14.77;;;9.97;;
12267;SDS011;6196;48.398;11.736;2023-03-05T14:09:53;16.13;;;9.53;;
12267;SDS011;6196;48.398;11.736;2023-03-05T14:12:35;15.23;;;9.63;;
12267;SDS011;6196;48.398;11.736;2023-03-05T14:15:25;15.23;;;10.23;;
12267;SDS011;6196;48.398;11.736;2023-03-05T14:20:41;16.50;;;9.63;;
12267;SDS011;6196;48.398;11.736;2023-03-05T14:23:41;15.97;;;9.50;;
12267;SDS011;6196;48.398;11.736;2023-03-05T14:31:31;17.33;;;10.73;;
12267;SDS011;6196;48.398;11.736;2023-03-05T14:34:35;15.03;;;10.07;;
12267;SDS011;6196;48.398;11.736;2023-03-05T14:45:21;13.67;;;9.37;;
12267;SDS011;6196;48.398;11.736;2023-03-05T14:47:55;17.57;;;9.77;;
12267;SDS011;6196;48.398;11.736;2023-03-05T14:50:26;16.77;;;10.80;;
12267;SDS011;6196;48.398;11.736;2023-03-05T14:53:13;14.63;;;9.87;;
12267;SDS011;6196;48.398;11.736;2023-03-05T14:55:42;15.60;;;9.90;;
12267;SDS011;6196;48.398;11.736;2023-03-05T14:58:24;12.80;;;8.93;;
12267;SDS011;6196;48.398;11.736;2023-03-05T15:01:00;12.83;;;9.63;;
12267;SDS011;6196;48.398;11.736;2023-03-05T15:03:27;14.07;;;9.17;;
12267;SDS011;6196;48.398;11.736;2023-03-05T15:05:55;14.90;;;9.40;;
12267;SDS011;6196;48.398;11.736;2023-03-05T15:08:25;16.73;;;9.70;;
12267;SDS011;6196;48.398;11.736;2023-03-05T15:10:54;17.37;;;9.27;;
12267;SDS011;6196;48.398;11.736;2023-03-05T15:13:22;15.40;;;10.03;;
12267;SDS011;6196;48.398;11.736;2023-03-05T15:15:49;15.67;;;10.23;;
12267;SDS011;6196;48.398;11.736;2023-03-05T15:18:17;15.93;;;9.93;;
12267;SDS011;6196;48.398;11.736;2023-03-05T15:20:47;15.30;;;9.63;;
12267;SDS011;6196;48.398;11.736;2023-03-05T15:23:18;16.10;;;9.73;;
12267;SDS011;6196;48.398;11.736;2023-03-05T15:25:45;13.67;;;9.80;;
12267;SDS011;6196;48.398;11.736;2023-03-05T15:28:12;13.90;;;9.30;;
12267;SDS011;6196;48.398;11.736;2023-03-05T15:30:40;14.87;;;10.13;;
12267;SDS011;6196;48.398;11.736;2023-03-05T15:33:12;14.20;;;8.60;;
12267;SDS011;6196;48.398;11.736;2023-03-05T15:35:41;12.77;;;8.83;;
12267;SDS011;6196;48.398;11.736;2023-03-05T15:38:08;15.23;;;9.30;;
12267;SDS011;6196;48.398;11.736;2023-03-05T15:40:35;15.23;;;9.80;;
12267;SDS011;6196;48.398;11.736;2023-03-05T15:43:02;16.87;;;8.93;;
12267;SDS011;6196;48.398;11.736;2023-03-05T15:45:29;16.70;;;8.83;;
12267;SDS011;6196;48.398;11.736;2023-03-05T15:47:56;14.53;;;9.63;;
12267;SDS011;6196;48.398;11.736;2023-03-05T15:50:24;15.67;;;10.17;;
12267;SDS011;6196;48.398;11.736;2023-03-05T15:52:51;11.87;;;8.77;;
12267;SDS011;6196;48.398;11.736;2023-03-05T15:55:18;12.00;;;8.40;;
12267;SDS011;6196;48.398;11.736;2023-03-05T15:57:47;13.77;;;8.57;;
12267;SDS011;6196;48.398;11.736;2023-03-05T16:00:17;16.93;;;9.60;;
12267;SDS011;6196;48.398;11.736;2023-03-05T16:02:53;12.93;;;8.20;;
12267;SDS011;6196;48.398;11.736;2023-03-05T16:05:20;15.10;;;9.00;;
12267;SDS011;6196;48.398;11.736;2023-03-05T16:07:48;14.07;;;9.07;;
12267;SDS011;6196;48.398;11.736;2023-03-05T16:10:18;15.67;;;9.23;;
12267;SDS011;6196;48.398;11.736;2023-03-05T16:12:52;12.40;;;8.07;;
12267;SDS011;6196;48.398;11.736;2023-03-05T16:15:28;13.60;;;8.53;;
12267;SDS011;6196;48.398;11.736;2023-03-05T16:17:59;13.17;;;8.63;;
12267;SDS011;6196;48.398;11.736;2023-03-05T16:20:29;13.03;;;8.57;;
12267;SDS011;6196;48.398;11.736;2023-03-05T16:22:57;14.43;;;8.97;;
12267;SDS011;6196;48.398;11.736;2023-03-05T16:25:24;16.03;;;9.27;;
12267;SDS011;6196;48.398;11.736;2023-03-05T16:27:51;13.43;;;8.73;;
12267;SDS011;6196;48.398;11.736;2023-03-05T16:30:18;12.37;;;8.73;;
12267;SDS011;6196;48.398;11.736;2023-03-05T16:32:46;12.00;;;8.97;;
12267;SDS011;6196;48.398;11.736;2023-03-05T16:35:13;14.60;;;9.10;;
12267;SDS011;6196;48.398;11.736;2023-03-05T16:37:41;13.87;;;9.07;;